TitleAuthorLatest activityViews
Threadiris_on_adobeOctober 20, 2017 4:05:14 AM 70 0 2
ThreadALspOctober 20, 2017 3:49:49 AM 780 0 3
ThreadBrian DiehmOctober 20, 2017 2:49:58 AM 1950 0 7
ThreadJon Fritz IIOctober 20, 2017 1:38:06 AM 1410 0 12
Threadjohne30213120October 20, 2017 1:14:25 AM 1260 0 4
ThreadroggOctober 20, 2017 12:01:49 AM 480 0 2
ThreadcynglasOctober 19, 2017 11:09:48 PM 1190 0 2
Threadwilliamm86517933October 19, 2017 6:04:17 PM 721 0 3
Threadkineticcreative123October 19, 2017 4:31:25 PM 550 0 2
ThreadBen MOctober 19, 2017 2:37:59 PM 960 0 4
Threadr_tistOctober 19, 2017 12:32:15 PM 660 0 2
Threadmelissav69683943October 19, 2017 11:40:24 AM 1610 0 8
ThreadNPousseurOctober 19, 2017 10:17:56 AM 780 0 7
ThreadAnomalyIncOctober 19, 2017 10:05:49 AM 830 0 2
ThreadJoan CatherineOctober 19, 2017 10:02:30 AM 1910 0 7
Threadcoraj57837290October 19, 2017 9:50:00 AM 1070 0 6
ThreadRebeckaSOctober 19, 2017 9:11:21 AM 9370 0 9
ThreadHomingXLOctober 19, 2017 4:26:13 AM 350 0 0
Threaderikam60332558October 19, 2017 4:24:24 AM 520 0 1
ThreaditstheplowstaOctober 19, 2017 3:27:27 AM 74083 0 26